Hoppa till innehåll

METAR Reports and Weather - ESGG

Nedan listas information från vald flygplats. Andra METARs finns längre ned på sidan. Kontakta oss om någon saknas eller skriv in egen ICAO-kod.

Other METARs of interest

Klicka på önskad rubrik nedan för att visa nuvarande väder för den platsen.

Distance from station: NE 27kmESGG - Göteborg (Landvetter)
Updated: 2022-12-01 13:50
 Wind from NE
Wind: NE 13 km/h
Temperature: 2°C
Wind Chill: -1°C
Dew Point: 0°C
Humidity: 87%
Barometer: 1032 hPa
Clouds: Mostly cloudy
Visibility: 10 km
Cloud details: Mostly cloudy 244 m
2022/12/01 12:50 ESGG 011250Z 04007KT 9999 BKN008 02/00 Q1032
Mostly cloudy
Mostly cloudy
  Visa detaljer för Göteborg (Landvetter)
Distance from station: N 28kmESGP - Göteborg (Säve)
Updated: 2022-12-01 13:50
 Wind from NNE
Wind: NNE 9 km/h
Temperature: 3°C
Wind Chill: 0°C
Dew Point: 1°C
Humidity: 87%
Barometer: 1033 hPa
Clouds: Mostly cloudy
Visibility: 10 km
Cloud details: Mostly cloudy 335 m
2022/12/01 12:50 ESGP 011250Z 03005KT 9999 BKN011 03/01 Q1033
Mostly cloudy
Mostly cloudy
  Visa detaljer för Göteborg (Säve)
Distance from station: NE 419kmESSA - Stockholm (Arlanda)
Updated: 2022-12-01 13:50
 Wind from ENE
Wind: ENE 9 km/h
Temperature: 2°C
Wind Chill: -1°C
Dew Point: 1°C
Humidity: 93%
Barometer: 1035 hPa
Summary: Light rain, Patches of, Fog
Clouds: Mostly cloudy
Visibility: 7 km
Cloud details: Few Clouds 549 m
Mostly cloudy 1006 m
Mostly cloudy 1737 m
2022/12/01 12:50 ESSA 011250Z 07005KT 7000 -RA BCFG FEW018 BKN033 BKN057 02/01 Q1035 TEMPO 4000 DZ BKN010
Light rain, Patches of, Fog, Mostly cloudy
Light rain
Patches of
Fog
Mostly cloudy
  Visa detaljer för Stockholm (Arlanda)
Distance from station: ENE 404kmESSB - Stockholm (Bromma)
Updated: 2022-12-01 13:50
 Wind from E
Wind: E 9 km/h
Temperature: 3°C
Wind Chill: 0°C
Dew Point: 3°C
Humidity: 100%
Barometer: 1035 hPa
Summary: Light Drizzle
Clouds: Mostly cloudy
Visibility: 10 km
Cloud details: Partly cloudy 335 m
Mostly cloudy 792 m
2022/12/01 12:50 ESSB 011250Z 08005KT 9999 -DZ SCT011 BKN026 03/03 Q1035
Light drizzle, Mostly cloudy
Light drizzle
Mostly cloudy
  Visa detaljer för Stockholm (Bromma)
Distance from station: ENE 323kmESKN - Stockholm (Skavsta)
Updated: 2022-12-01 13:50
 Wind from NNE
Wind: NNE 7 km/h
Temperature: 2°C
Wind Chill: 0°C
Dew Point: 2°C
Humidity: 100%
Barometer: 1034 hPa
Summary: Light rain, Mist
Clouds: Mostly cloudy
Visibility: 5 km
Cloud details: Mostly cloudy 640 m
2022/12/01 12:50 ESKN 011250Z 03004KT 4800 -RA BR BKN021 02/02 Q1034
Light rain, Mist, Mostly cloudy
Light rain
Mist
Mostly cloudy
  Visa detaljer för Stockholm (Skavsta)
Distance from station: SSE 238kmESMS - Malmö flygplats (Sturup)
Updated: 2022-12-01 13:50
 Wind from NE
Wind: NE 6 km/h
Temperature: 3°C
Dew Point: 2°C
Humidity: 93%
Barometer: 1030 hPa
Clouds: Overcast
Visibility: 7 km
Cloud details: Overcast 671 m
2022/12/01 12:50 ESMS 011250Z 05003KT 7000 OVC022 03/02 Q1030
Overcast
Overcast
  Visa detaljer för Malmö flygplats (Sturup)
Distance from station: E 382kmESSV - Visby flygplats
Updated: 2022-12-01 13:50
 Wind from E
Wind: E 11 km/h
Temperature: 3°C
Wind Chill: 0°C
Dew Point: 2°C
Humidity: 93%
Barometer: 1033 hPa
Summary: Clear
Visibility: greater than 10 km
2022/12/01 12:50 ESSV 011250Z 09006KT CAVOK 03/02 Q1033
Clear
Clear
  Visa detaljer för Visby flygplats
Distance from station: NNE 92kmESGT - Trollhättan
Updated: 2022-12-01 13:50
 Wind from NE
Wind: NE 9 km/h
Temperature: 3°C
Wind Chill: 0°C
Dew Point: 1°C
Humidity: 87%
Barometer: 1034 hPa
Summary: Light Drizzle
Clouds: Mostly cloudy
Visibility: 10 km
Cloud details: Partly cloudy 396 m
Partly cloudy 671 m
Mostly cloudy 1189 m
2022/12/01 12:50 ESGT 011250Z 05005KT 020V080 9999 -DZ SCT013 SCT022 BKN039 03/01 Q1034
Light drizzle, Mostly cloudy
Light drizzle
Mostly cloudy
  Visa detaljer för Trollhättan
Distance from station: ENE 129kmESGJ - Jönköpings flygplats
Updated: 2022-12-01 13:50
 Wind from NE
Wind: NE 6 km/h
Temperature: 2°C
Dew Point: 2°C
Humidity: 100%
Barometer: 1032 hPa
Clouds: Mostly cloudy
Visibility: 10 km
Cloud details: Mostly cloudy 183 m
2022/12/01 12:50 ESGJ 011250Z 05003KT 9999 BKN006 02/02 Q1032
Mostly cloudy
Mostly cloudy
  Visa detaljer för Jönköpings flygplats
Distance from station: NNE 229kmESOK - Karlstad
Updated: 2022-12-01 13:50
 Wind from N
Wind: N 7 km/h
Temperature: 1°C
Wind Chill: -2°C
Dew Point: 1°C
Humidity: 100%
Barometer: 1034 hPa
Clouds: Mostly cloudy
Visibility: 10 km
Cloud details: Partly cloudy 91 m
Mostly cloudy 549 m
2022/12/01 12:50 ESOK 011250Z 01004KT 9999 SCT003 BKN018 01/01 Q1034
Mostly cloudy
Mostly cloudy
  Visa detaljer för Karlstad
Distance from station: N 643kmESNZ - Östersund (Frösön)
Updated: 2022-12-01 13:50
 Wind from varies
Wind: varies 6 km/h
Temperature: -3°C
Dew Point: -3°C
Humidity: 100%
Barometer: 1035 hPa
Clouds: Overcast
Visibility: 10 km
Cloud details: Overcast 91 m
2022/12/01 12:50 ESNZ 011250Z AUTO VRB03KT 9999 OVC003/// M03/M03 Q1035
Overcast
Overcast
  Visa detaljer för Östersund (Frösön)
Distance from station: SSE 216kmEKCH - Köpenhamn (Kastrup)
Updated: 2022-12-01 13:50
 Wind from NE
Wind: NE 13 km/h
Temperature: 5°C
Wind Chill: 2°C
Dew Point: 3°C
Humidity: 87%
Barometer: 1031 hPa
Clouds: Mostly cloudy
Visibility: 10 km
Cloud details: Mostly cloudy 1006 m
2022/12/01 12:50 EKCH 011250Z 05007KT 9999 BKN033 05/03 Q1031 NOSIG
Mostly cloudy
Mostly cloudy
  Visa detaljer för Köpenhamn (Kastrup)
Distance from station: SW 263kmEKBI - Billund Airport
Updated: 2022-12-01 13:50
 Wind from NE
Wind: NE 13 km/h
Temperature: 4°C
Wind Chill: 1°C
Dew Point: 3°C
Humidity: 93%
Barometer: 1030 hPa
Clouds: Mostly cloudy
Visibility: 10 km
Cloud details: Few Clouds 975 m
Few Clouds 1097 m
Mostly cloudy 2256 m
2022/12/01 12:50 EKBI 011250Z AUTO 05007KT 9999 FEW032/// FEW036/// BKN074/// 04/03 Q1030
Mostly cloudy
Mostly cloudy
  Visa detaljer för Billund Airport
Distance from station: N 302kmENGM - Oslo (Gardermoen)
Updated: 2022-12-01 13:50
 Wind from N
Wind: N 9 km/h
Temperature: -1°C
Wind Chill: -4°C
Dew Point: -2°C
Humidity: 93%
Barometer: 1035 hPa
Summary: Light Snow
Clouds: Mostly cloudy
Visibility: 9 km
Cloud details: Few Clouds 152 m
Mostly cloudy 244 m
2022/12/01 12:50 ENGM 011250Z 01005KT 9000 -SN FEW005 BKN008 M01/M02 Q1035 TEMPO BKN012
Light snow, Mostly cloudy
Light snow
Mostly cloudy
  Visa detaljer för Oslo (Gardermoen)
Distance from station: NE 540kmEFMA - Mariehamn / Åland
Updated: 2022-12-01 13:50
 Wind from ESE
Wind: ESE 11 km/h
Temperature: 3°C
Wind Chill: 0°C
Dew Point: 1°C
Humidity: 87%
Barometer: 1036 hPa
Clouds: Overcast
Visibility: 10 km
Cloud details: Overcast 518 m
2022/12/01 12:50 EFMA 011250Z AUTO 11006KT 9999 OVC017 03/01 Q1036
Overcast
Overcast
  Visa detaljer för Mariehamn / Åland
Distance from station: S 558kmEDDT - Berlin (Tegel), Germany
Updated: 2020-11-09 07:50
NOT Current
 Wind from E
Wind: E 11 km/h
Temperature: 6°C
Wind Chill: 4°C
Dew Point: 5°C
Humidity: 93%
Barometer: 1027 hPa
Summary: Mist
Clouds: Overcast
Visibility: 3 km
Cloud details: Overcast 91 m
2020/11/09 06:50 EDDT 090650Z 09006KT 050V120 3000 BR OVC003 06/05 Q1027
Mist, Overcast
Mist
Overcast
  Visa detaljer för Berlin (Tegel), Germany
Distance from station: SW 737kmEHAM - Amsterdam (Schiphol)
Updated: 2022-12-01 13:25
 Wind from NE
Wind: NE 13 km/h
Temperature: 8°C
Wind Chill: 6°C
Dew Point: 3°C
Humidity: 71%
Barometer: 1028 hPa
Clouds: Few Clouds
Visibility: 10 km
Cloud details: Few Clouds 579 m
2022/12/01 12:25 EHAM 011225Z 04007KT 010V070 9999 FEW019 08/03 Q1028 NOSIG
Few Clouds
Few Clouds
  Visa detaljer för Amsterdam (Schiphol)
Distance from station: ENE 808kmEFHK - Helsingfors (Vantaa)
Updated: 2022-12-01 13:50
 Wind from ENE
Wind: ENE 13 km/h
Temperature: -1°C
Wind Chill: -6°C
Dew Point: -2°C
Humidity: 93%
Barometer: 1038 hPa
Clouds: Mostly cloudy
Visibility: 10 km
Cloud details: Few Clouds 213 m
Mostly cloudy 335 m
2022/12/01 12:50 EFHK 011250Z 06007KT 9999 FEW007 BKN011 M01/M02 Q1038 NOSIG
Mostly cloudy
Mostly cloudy
  Visa detaljer för Helsingfors (Vantaa)
Distance from station: SSW 537kmEDDW - Bremen
Updated: 2022-12-01 13:50
 Wind from ENE
Wind: ENE 11 km/h
Temperature: 4°C
Wind Chill: 1°C
Dew Point: 2°C
Humidity: 87%
Barometer: 1028 hPa
Clouds: Overcast
Visibility: 10 km
Cloud details: Overcast 427 m
2022/12/01 12:50 EDDW 011250Z AUTO 07006KT 9999 OVC014 04/02 Q1028 TEMPO 4000 BR OVC009
Overcast
Overcast
  Visa detaljer för Bremen
Distance from station: SSW 861kmEDDF - Frankfurt am Main
Updated: 2022-12-01 13:50
 Wind from NNE
Wind: NNE 17 km/h
Temperature: 5°C
Wind Chill: 2°C
Dew Point: 1°C
Humidity: 76%
Barometer: 1024 hPa
Clouds: Overcast
Visibility: 10 km
Cloud details: Few Clouds 579 m
Overcast 914 m
2022/12/01 12:50 EDDF 011250Z AUTO 02009KT 350V050 9999 FEW019 OVC030 05/01 Q1024 NOSIG
Overcast
Overcast
  Visa detaljer för Frankfurt am Main
Distance from station: SW 880kmEBBR - Bryssel international
Updated: 2022-12-01 13:50
 Wind from NNE
Wind: NNE 11 km/h
Temperature: 6°C
Wind Chill: 4°C
Dew Point: 4°C
Humidity: 87%
Barometer: 1027 hPa
Clouds: Mostly cloudy
Visibility: 10 km
Cloud details: Mostly cloudy 366 m
Mostly cloudy 671 m
2022/12/01 12:50 EBBR 011250Z 02006KT 9999 BKN012 BKN022 06/04 Q1027 NOSIG
Mostly cloudy
Mostly cloudy
  Visa detaljer för Bryssel international
Distance from station: SW 738kmEHAM - Amsterdam (Schiphol)
Updated: 2022-12-01 13:25
 Wind from NE
Wind: NE 13 km/h
Temperature: 8°C
Wind Chill: 6°C
Dew Point: 3°C
Humidity: 71%
Barometer: 1028 hPa
Clouds: Few Clouds
Visibility: 10 km
Cloud details: Few Clouds 579 m
2022/12/01 12:25 EHAM 011225Z 04007KT 010V070 9999 FEW019 08/03 Q1028 NOSIG
Few Clouds
Few Clouds
  Visa detaljer för Amsterdam (Schiphol)
Distance from station: SW 1044kmEGLL - London (Heathrow)
Updated: 2022-12-01 13:50
 Wind from NW
Wind: NW 6 km/h
Temperature: 7°C
Dew Point: 5°C
Humidity: 87%
Barometer: 1029 hPa
Summary: Haze
Clouds: Mostly cloudy
Visibility: 2 km
Cloud details: Partly cloudy 30 m
Mostly cloudy 183 m
2022/12/01 12:50 EGLL 011250Z 31003KT 280V340 1500 HZ SCT001 BKN006 07/05 Q1029 TEMPO 6000
Haze, Mostly cloudy
Haze
Mostly cloudy
  Visa detaljer för London (Heathrow)
Distance from station: SW 1132kmLFPG - Paris (Charles de Gaulle)
Updated: 2022-12-01 13:30
 Wind from N
Wind: N 22 km/h
Temperature: 6°C
Wind Chill: 2°C
Dew Point: 4°C
Humidity: 87%
Barometer: 1025 hPa
Clouds: Mostly cloudy
Visibility: 8 km
Cloud details: Mostly cloudy 213 m
Mostly cloudy 1463 m
2022/12/01 12:30 LFPG 011230Z 01012KT 8000 BKN007 BKN048 06/04 Q1025 TEMPO BKN012
Mostly cloudy
Mostly cloudy
  Visa detaljer för Paris (Charles de Gaulle)
Distance from station: SSW 1142kmLSZH - Zürich Airport
Updated: 2022-12-01 13:50
 Wind from N
Wind: N 7 km/h
Temperature: 4°C
Wind Chill: 2°C
Dew Point: 0°C
Humidity: 75%
Barometer: 1020 hPa
Clouds: Mostly cloudy
Visibility: 10 km
Cloud details: Few Clouds 457 m
Mostly cloudy 549 m
2022/12/01 12:50 LSZH 011250Z 01004KT 9999 FEW015 BKN018 04/M00 Q1020 NOSIG
Mostly cloudy
Mostly cloudy
  Visa detaljer för Zürich Airport
Distance from station: S 1749kmLIRF - Rome Airport (Fiumicino - Leonardo da Vinci)
Updated: 2022-12-01 13:50
 Wind from SE
Wind: SE 6 km/h
Temperature: 14°C
Dew Point: 5°C
Humidity: 55%
Barometer: 1014 hPa
Summary: Clear
Visibility: greater than 10 km
2022/12/01 12:50 LIRF 011250Z 13003KT 090V170 CAVOK 14/05 Q1014 NOSIG
Clear
Clear
  Visa detaljer för Rome Airport (Fiumicino - Leonardo da Vinci)
Distance from station: SE 2679kmLTAI - Antalya
Updated: 2022-12-01 13:20
 Wind from NNE
Wind: NNE 11 km/h
Temperature: 17°C
Dew Point: 15°C
Humidity: 88%
Barometer: 1018 hPa
Clouds: Mostly cloudy
Visibility: 10 km
Cloud details: Few Clouds 610 m
Mostly cloudy 914 m
2022/12/01 12:20 LTAI 011220Z 03006KT 9999 FEW020CB BKN030 17/15 Q1018 BECMG TL1320 16010KT
Mostly cloudy
Mostly cloudy
  Visa detaljer för Antalya
Distance from station: WSW 6074kmKJFK - New Your (JFK)
Updated: 2022-12-01 13:51
 Wind from W
Wind: W 28 km/h
Temperature: 3°C
Wind Chill: -3°C
Dew Point: -7°C
Humidity: 48%
Barometer: 1022 hPa
Clouds: Few Clouds
Visibility: 16 km
Cloud details: Few Clouds 1676 m
2022/12/01 12:51 KJFK 011251Z 27015KT 10SM FEW055 03/M07 A3018 RMK AO2 SLP217 T00331072
Few Clouds
Few Clouds
  Visa detaljer för New Your (JFK)
Distance from station: WSW 8848kmKLAX - Los Angeles International Airport
Updated: 2022-12-01 13:53
 Wind from E
Wind: E 6 km/h
Temperature: 13°C
Dew Point: 7°C
Humidity: 67%
Barometer: 1015.9 hPa
Clouds: Overcast
Visibility: 16 km
Cloud details: Few Clouds 762 m
Overcast 1219 m
2022/12/01 12:53 KLAX 011253Z 09003KT 10SM FEW025 OVC040 13/07 A3000 RMK AO2 SLP159 T01330067 $
Overcast
Overcast
  Visa detaljer för Los Angeles International Airport
Distance from station: SE 4968kmOMDB - Dubai International Airport
Updated: 2022-12-01 13:00
 Wind from NW
Wind: NW 15 km/h
Temperature: 29°C
Heat Index: 29°C
Dew Point: 18°C
Humidity: 51%
Barometer: 1014 hPa
Summary: Clear
Visibility: greater than 10 km
2022/12/01 12:00 OMDB 011200Z 31008KT 280V350 CAVOK 29/18 Q1014 NOSIG
Clear
Clear
  Visa detaljer för Dubai International Airport
Distance from station: ESE 8570kmRJTT - Tokyo International Airport
Updated: 2022-12-01 13:30
 Wind from NNE
Wind: NNE 6 km/h
Temperature: 10°C
Dew Point: 7°C
Humidity: 82%
Barometer: 1017 hPa
Clouds: Mostly cloudy
Visibility: 10 km
Cloud details: Few Clouds 457 m
Mostly cloudy 762 m
2022/12/01 12:30 RJTT 011230Z 02003KT 330V060 9999 FEW015 BKN025 10/07 Q1017 NOSIG
Mostly cloudy
Mostly cloudy
  Visa detaljer för Tokyo International Airport
Distance from station: ESE 7125kmZBAA - Peking (Beijing Capital)
Updated: 2022-12-01 13:30
 Wind from SSW
Wind: SSW 14 km/h
Temperature: -2°C
Wind Chill: -7°C
Dew Point: -19°C
Humidity: 26%
Barometer: 1032 hPa
Summary: Clear
Visibility: greater than 10 km
2022/12/01 12:30 ZBAA 011230Z 21004MPS CAVOK M02/M19 Q1032 NOSIG
Clear
Clear
  Visa detaljer för Peking (Beijing Capital)
WEATHER TRIVIA -  Weather TermsTornado - A violently rotating column of air, from a thunderstorm, in contact with the ground.